Time;durP1;ratioP1;P1;durP2;ratioP2;P2;SDS_P1;SDS_P2;PMS_P1;PMS_P2;Temp;Humidity;BMP_temperature;BMP_pressure;BME280_temperature;BME280_humidity;BME280_pressure;Samples;Min_cycle;Max_cycle;Signal;HPM_P1;HPM_P2
2023/03/09 00:02:09;;;;;;;4.88;4.05;;;9.80;99.90;;;;;;4173060;28;20229;-59
2023/03/09 00:04:29;;;;;;;4.93;4.50;;;9.90;99.90;;;;;;4171262;28;20060;-58
2023/03/09 00:06:50;;;;;;;5.93;5.53;;;9.90;99.90;;;;;;4177530;28;20076;-59
2023/03/09 00:09:12;;;;;;;6.32;4.90;;;9.90;99.90;;;;;;4185108;28;20370;-58
2023/03/09 00:14:11;;;;;;;7.30;4.95;;;9.90;99.90;;;;;;4180651;28;20080;-58
2023/03/09 00:16:31;;;;;;;5.07;4.53;;;10.00;99.90;;;;;;4184400;28;20079;-59
2023/03/09 00:18:53;;;;;;;6.80;5.13;;;9.90;99.90;;;;;;4174881;28;20045;-55
2023/03/09 00:21:34;;;;;;;6.47;5.85;;;9.90;99.90;;;;;;4175260;28;20040;-56
2023/03/09 00:23:53;;;;;;;5.22;4.68;;;9.90;99.90;;;;;;4185196;28;20045;-56
2023/03/09 00:26:13;;;;;;;9.85;5.30;;;9.90;99.90;;;;;;4179190;28;20049;-55
2023/03/09 00:28:33;;;;;;;5.28;4.80;;;9.90;99.90;;;;;;4174076;28;20088;-56
2023/03/09 00:30:52;;;;;;;7.15;6.50;;;9.90;99.90;;;;;;4176196;28;20044;-56
2023/03/09 00:33:12;;;;;;;5.68;5.20;;;9.90;99.90;;;;;;4182023;28;20091;-56
2023/03/09 00:35:36;;;;;;;5.53;5.10;;;9.90;99.90;;;;;;4173410;28;20374;-56
2023/03/09 00:37:56;;;;;;;5.85;4.07;;;9.90;99.90;;;;;;4169638;28;20053;-56
2023/03/09 00:40:16;;;;;;;6.28;4.68;;;9.90;99.90;;;;;;4175792;28;20087;-56
2023/03/09 00:42:38;;;;;;;4.40;4.00;;;10.00;99.90;;;;;;4174053;28;20057;-56
2023/03/09 00:44:59;;;;;;;4.68;4.40;;;10.00;99.90;;;;;;4171600;28;20045;-56
2023/03/09 00:47:18;;;;;;;6.88;6.35;;;9.90;99.90;;;;;;4174342;28;20044;-56
2023/03/09 00:49:38;;;;;;;8.15;4.82;;;10.00;99.90;;;;;;4174577;28;20240;-55
2023/03/09 00:51:58;;;;;;;6.85;5.72;;;9.90;99.90;;;;;;4171771;28;20049;-56
2023/03/09 00:54:18;;;;;;;5.97;5.07;;;9.80;99.90;;;;;;4172248;28;20045;-55
2023/03/09 00:56:38;;;;;;;5.75;5.00;;;9.70;99.90;;;;;;4173214;28;20410;-56
2023/03/09 00:58:59;;;;;;;6.72;5.82;;;9.70;99.90;;;;;;4179073;28;20096;-56
2023/03/09 01:01:20;;;;;;;5.55;5.10;;;9.70;99.90;;;;;;4177065;28;20044;-56
2023/03/09 01:03:40;;;;;;;7.60;4.80;;;9.70;99.90;;;;;;4173179;28;20057;-56
2023/03/09 01:06:00;;;;;;;5.93;5.22;;;9.60;99.90;;;;;;4172195;28;20416;-55
2023/03/09 01:08:20;;;;;;;6.45;4.75;;;9.60;99.90;;;;;;4174864;28;20113;-55
2023/03/09 01:10:42;;;;;;;4.57;4.20;;;9.70;99.90;;;;;;4173794;28;20068;-55
2023/03/09 01:13:02;;;;;;;4.78;4.35;;;9.70;99.90;;;;;;4175968;28;20367;-55
2023/03/09 01:15:22;;;;;;;10.02;5.38;;;9.80;99.90;;;;;;4176861;28;20041;-55
2023/03/09 01:17:42;;;;;;;7.18;4.97;;;9.70;99.90;;;;;;4175012;28;20075;-55
2023/03/09 01:20:03;;;;;;;6.30;5.22;;;9.70;99.90;;;;;;4167268;28;20363;-55
2023/03/09 01:22:24;;;;;;;6.55;6.25;;;9.70;99.90;;;;;;4175427;28;20075;-55
2023/03/09 01:24:43;;;;;;;5.93;5.38;;;9.70;99.90;;;;;;4177174;28;20073;-55
2023/03/09 01:27:03;;;;;;;8.50;5.95;;;9.70;99.90;;;;;;4181403;28;20123;-56
2023/03/09 01:29:23;;;;;;;5.80;5.28;;;9.60;99.90;;;;;;4180925;28;20056;-55
2023/03/09 01:31:43;;;;;;;3.90;3.75;;;9.60;99.90;;;;;;4179518;28;20047;-56
2023/03/09 01:34:03;;;;;;;7.78;5.28;;;9.60;99.90;;;;;;4166946;28;20049;-55
2023/03/09 01:36:23;;;;;;;7.30;4.90;;;9.60;99.90;;;;;;4175148;28;20052;-56
2023/03/09 01:38:44;;;;;;;5.68;5.22;;;9.50;99.90;;;;;;4179243;28;20390;-56
2023/03/09 01:41:04;;;;;;;5.28;5.07;;;9.60;99.90;;;;;;4177540;28;20071;-55
2023/03/09 01:43:39;;;;;;;4.45;4.15;;;9.60;99.90;;;;;;4161323;28;20117;-56
2023/03/09 01:46:21;;;;;;;4.85;4.38;;;9.70;99.90;;;;;;4175298;28;20107;-56
2023/03/09 01:48:42;;;;;;;15.65;6.20;;;9.70;99.90;;;;;;4178888;28;20239;-56
2023/03/09 01:51:01;;;;;;;6.85;6.00;;;9.70;99.90;;;;;;4173927;28;20404;-55
2023/03/09 01:53:21;;;;;;;5.10;4.72;;;9.70;99.90;;;;;;4180623;28;20296;-55
2023/03/09 01:55:46;;;;;;;8.02;5.40;;;9.80;99.90;;;;;;4175982;28;20109;-56
2023/03/09 01:58:27;;;;;;;6.38;4.28;;;9.80;99.90;;;;;;4174481;28;20359;-55
2023/03/09 02:00:49;;;;;;;5.15;4.78;;;9.80;99.90;;;;;;4176562;28;20276;-56
2023/03/09 02:03:18;;;;;;;4.55;4.20;;;9.90;99.90;;;;;;4185003;28;20346;-56
2023/03/09 02:06:17;;;;;;;7.53;5.00;;;9.90;99.90;;;;;;4175874;28;20048;-55
2023/03/09 02:08:44;;;;;;;5.65;5.18;;;9.80;99.90;;;;;;4176690;28;20048;-56
2023/03/09 02:11:08;;;;;;;9.13;4.63;;;9.90;99.90;;;;;;4174408;28;20080;-56
2023/03/09 02:13:35;;;;;;;6.25;5.72;;;9.80;99.90;;;;;;4172811;28;20044;-55
2023/03/09 02:15:55;;;;;;;6.13;5.53;;;9.80;99.90;;;;;;4177105;28;20048;-55
2023/03/09 02:18:14;;;;;;;6.75;5.70;;;9.80;99.90;;;;;;4175815;28;20053;-55
2023/03/09 02:21:02;;;;;;;5.15;4.22;;;9.90;99.90;;;;;;4180203;28;20064;-55
2023/03/09 02:23:21;;;;;;;6.25;5.47;;;10.10;99.90;;;;;;4183986;28;20360;-55
2023/03/09 02:25:49;;;;;;;5.22;4.90;;;10.10;99.90;;;;;;4184962;28;20053;-56
2023/03/09 02:28:09;;;;;;;4.60;4.15;;;10.20;99.90;;;;;;4178061;28;20097;-56
2023/03/09 02:30:31;;;;;;;5.45;4.07;;;10.20;99.90;;;;;;4175416;28;20044;-55
2023/03/09 02:33:05;;;;;;;4.68;4.03;;;10.20;99.90;;;;;;4170317;28;20091;-56
2023/03/09 02:35:25;;;;;;;5.60;4.13;;;10.10;99.90;;;;;;4169948;28;20068;-55
2023/03/09 02:37:44;;;;;;;8.27;5.30;;;10.20;99.90;;;;;;4172323;28;20052;-55
2023/03/09 02:40:21;;;;;;;7.28;5.38;;;10.30;99.90;;;;;;4174762;28;20056;-56
2023/03/09 02:42:43;;;;;;;7.20;4.25;;;10.30;99.90;;;;;;4172368;28;20052;-55
2023/03/09 02:45:05;;;;;;;3.58;3.33;;;10.30;99.90;;;;;;4175681;28;20051;-56
2023/03/09 02:47:24;;;;;;;6.68;5.43;;;10.30;99.90;;;;;;4179474;28;20121;-56
2023/03/09 02:49:44;;;;;;;9.13;5.15;;;10.20;99.90;;;;;;4180036;28;20419;-56
2023/03/09 02:52:04;;;;;;;4.03;3.50;;;10.20;99.90;;;;;;4173483;28;20086;-55
2023/03/09 02:54:24;;;;;;;7.47;4.10;;;10.10;99.90;;;;;;4178952;28;20052;-56
2023/03/09 02:56:44;;;;;;;4.63;3.90;;;10.20;99.90;;;;;;4174357;28;20059;-55
2023/03/09 02:59:03;;;;;;;5.95;4.53;;;10.20;99.90;;;;;;4172322;28;20044;-56
2023/03/09 03:01:23;;;;;;;5.65;5.20;;;10.20;99.90;;;;;;4172971;28;20056;-56
2023/03/09 03:03:43;;;;;;;9.05;5.10;;;10.20;99.90;;;;;;4175635;28;20052;-55
2023/03/09 03:06:04;;;;;;;3.72;3.35;;;10.30;99.90;;;;;;4172109;28;20076;-55
2023/03/09 03:08:24;;;;;;;4.53;4.22;;;10.20;99.90;;;;;;4174020;28;20103;-55
2023/03/09 03:10:56;;;;;;;7.03;4.50;;;10.30;99.90;;;;;;4174459;28;20049;-56
2023/03/09 03:13:16;;;;;;;6.30;3.97;;;10.40;99.90;;;;;;4176759;28;20076;-55
2023/03/09 03:15:35;;;;;;;9.82;4.63;;;10.40;99.90;;;;;;4169430;28;20064;-56
2023/03/09 03:17:55;;;;;;;5.50;3.60;;;10.40;99.90;;;;;;4180438;28;20056;-56
2023/03/09 03:20:16;;;;;;;4.60;4.05;;;10.30;99.90;;;;;;4172509;28;20233;-57
2023/03/09 03:22:36;;;;;;;6.00;3.90;;;10.30;99.90;;;;;;4174854;28;20051;-55
2023/03/09 03:24:56;;;;;;;5.90;5.40;;;10.30;99.90;;;;;;4176070;28;20076;-56
2023/03/09 03:27:16;;;;;;;7.10;3.60;;;10.40;99.90;;;;;;4182102;28;20040;-56
2023/03/09 03:29:37;;;;;;;12.35;3.63;;;10.40;99.90;;;;;;4170755;28;20049;-56
2023/03/09 03:31:58;;;;;;;4.55;3.65;;;10.30;99.90;;;;;;4176589;28;20071;-56
2023/03/09 03:34:18;;;;;;;7.25;4.38;;;10.30;99.90;;;;;;4174719;28;20063;-56
2023/03/09 03:36:38;;;;;;;5.20;3.55;;;10.30;99.90;;;;;;4171892;28;20049;-55
2023/03/09 03:38:58;;;;;;;7.35;4.57;;;10.30;99.90;;;;;;4170637;28;20104;-56
2023/03/09 03:41:18;;;;;;;5.97;4.15;;;10.20;99.90;;;;;;4183102;28;20048;-56
2023/03/09 03:43:37;;;;;;;4.97;3.47;;;10.30;99.90;;;;;;4179445;28;20163;-55
2023/03/09 03:45:57;;;;;;;4.28;3.85;;;10.30;99.90;;;;;;4173984;28;20049;-55
2023/03/09 03:48:17;;;;;;;5.88;4.35;;;10.30;99.90;;;;;;4167151;28;20080;-55
2023/03/09 03:50:37;;;;;;;5.22;3.25;;;10.40;99.90;;;;;;4172868;28;20064;-56
2023/03/09 03:52:58;;;;;;;7.78;3.90;;;10.50;99.90;;;;;;4177062;28;20364;-56
2023/03/09 03:55:18;;;;;;;3.88;3.67;;;10.50;99.90;;;;;;4172706;28;20044;-56
2023/03/09 03:57:38;;;;;;;8.27;3.85;;;10.50;99.90;;;;;;4170020;28;20099;-55
2023/03/09 03:59:58;;;;;;;5.63;3.65;;;10.60;99.90;;;;;;4170713;28;20043;-56
2023/03/09 04:02:18;;;;;;;3.97;3.83;;;10.60;99.90;;;;;;4176161;28;20057;-56
2023/03/09 04:04:38;;;;;;;6.40;4.35;;;10.60;99.90;;;;;;4175890;28;20048;-55
2023/03/09 04:06:57;;;;;;;3.88;3.55;;;10.60;99.90;;;;;;4169335;28;20239;-55
2023/03/09 04:09:17;;;;;;;7.03;3.35;;;10.60;99.90;;;;;;4174595;28;20053;-56
2023/03/09 04:11:37;;;;;;;3.00;2.80;;;10.60;99.90;;;;;;4174489;28;20047;-56
2023/03/09 04:13:57;;;;;;;3.83;3.28;;;10.60;99.90;;;;;;4176757;28;20043;-56
2023/03/09 04:16:17;;;;;;;4.22;3.92;;;10.60;99.90;;;;;;4177995;28;20107;-61
2023/03/09 04:18:37;;;;;;;6.18;3.28;;;10.60;99.90;;;;;;4182138;28;20052;-55
2023/03/09 04:20:58;;;;;;;4.10;3.88;;;10.60;99.90;;;;;;4179968;28;20083;-55
2023/03/09 04:23:17;;;;;;;4.07;3.78;;;10.60;99.90;;;;;;4177086;28;20051;-56
2023/03/09 04:25:37;;;;;;;4.32;4.00;;;10.70;99.90;;;;;;4176757;28;20048;-55
2023/03/09 04:27:57;;;;;;;5.75;4.47;;;10.70;99.90;;;;;;4183353;28;20240;-56
2023/03/09 04:30:20;;;;;;;9.90;4.00;;;10.60;99.90;;;;;;4178429;28;20048;-56
2023/03/09 04:32:40;;;;;;;8.38;4.97;;;10.60;99.90;;;;;;4179188;28;20084;-55
2023/03/09 04:35:00;;;;;;;4.35;3.25;;;10.60;99.90;;;;;;4181102;28;20040;-56
2023/03/09 04:37:20;;;;;;;8.05;3.85;;;10.60;99.90;;;;;;4179827;28;20052;-56
2023/03/09 04:39:40;;;;;;;5.40;3.60;;;10.60;99.90;;;;;;4173371;28;20122;-56
2023/03/09 04:42:00;;;;;;;8.52;4.68;;;10.70;99.90;;;;;;4178482;28;20047;-55
2023/03/09 04:44:21;;;;;;;5.32;3.17;;;10.70;99.90;;;;;;4179395;28;20036;-56
2023/03/09 04:46:41;;;;;;;4.32;3.90;;;10.70;99.90;;;;;;4173438;28;20048;-55
2023/03/09 04:49:01;;;;;;;3.47;3.30;;;10.70;99.90;;;;;;4176496;28;20052;-56
2023/03/09 04:51:21;;;;;;;5.65;3.25;;;10.70;99.90;;;;;;4180174;28;20106;-56
2023/03/09 04:53:41;;;;;;;6.82;3.58;;;10.70;99.90;;;;;;4177410;28;20040;-55
2023/03/09 04:56:02;;;;;;;9.02;4.03;;;10.70;99.90;;;;;;4173361;28;20375;-55
2023/03/09 04:58:21;;;;;;;7.20;3.22;;;10.70;99.90;;;;;;4177429;28;20114;-56
2023/03/09 05:00:41;;;;;;;4.93;3.90;;;10.70;99.90;;;;;;4179134;28;20048;-55
2023/03/09 05:03:01;;;;;;;6.47;3.90;;;10.70;99.90;;;;;;4174903;28;20060;-55
2023/03/09 05:05:21;;;;;;;10.48;4.63;;;10.70;99.90;;;;;;4176607;28;20087;-59
2023/03/09 05:07:41;;;;;;;7.70;4.00;;;10.60;99.90;;;;;;4175060;28;20112;-57
2023/03/09 05:10:01;;;;;;;6.78;3.90;;;10.70;99.90;;;;;;4170530;28;20037;-59
2023/03/09 05:12:21;;;;;;;5.32;3.60;;;10.70;99.90;;;;;;4176819;28;20103;-58
2023/03/09 05:14:41;;;;;;;4.03;3.72;;;10.70;99.90;;;;;;4176387;28;20041;-59
2023/03/09 05:17:00;;;;;;;4.60;4.13;;;10.80;99.90;;;;;;4174314;28;20060;-58
2023/03/09 05:19:22;;;;;;;7.63;4.05;;;10.80;99.90;;;;;;4175421;28;20041;-59
2023/03/09 05:21:41;;;;;;;5.18;3.45;;;10.70;99.90;;;;;;4179045;28;20056;-59
2023/03/09 05:24:01;;;;;;;4.72;3.55;;;10.70;99.90;;;;;;4173220;28;20364;-59
2023/03/09 05:26:22;;;;;;;5.28;3.35;;;10.70;99.90;;;;;;4166374;28;20045;-59
2023/03/09 05:28:42;;;;;;;4.38;2.67;;;10.80;99.90;;;;;;4174937;28;20099;-58
2023/03/09 05:31:03;;;;;;;7.30;3.75;;;10.80;99.90;;;;;;4169536;28;20093;-59
2023/03/09 05:33:23;;;;;;;4.72;4.20;;;10.80;99.90;;;;;;4169885;28;20371;-59
2023/03/09 05:35:43;;;;;;;8.38;4.15;;;10.80;99.90;;;;;;4164692;28;20052;-59
2023/03/09 05:38:03;;;;;;;9.63;4.40;;;10.80;99.90;;;;;;4170063;28;20080;-57
2023/03/09 05:40:24;;;;;;;12.05;4.32;;;10.80;99.90;;;;;;4180566;28;20086;-59
2023/03/09 05:42:46;;;;;;;6.47;4.00;;;10.70;99.90;;;;;;4183983;28;20112;-59
2023/03/09 05:45:06;;;;;;;8.43;3.65;;;10.70;99.90;;;;;;4172236;28;20037;-59
2023/03/09 05:47:26;;;;;;;5.22;4.28;;;10.70;99.90;;;;;;4177690;28;20052;-59
2023/03/09 05:49:48;;;;;;;5.88;3.95;;;10.60;99.90;;;;;;4182376;28;20431;-59
2023/03/09 05:52:08;;;;;;;9.80;4.65;;;10.60;99.90;;;;;;4177743;28;20071;-59
2023/03/09 05:54:28;;;;;;;5.45;3.88;;;10.60;99.90;;;;;;4176275;28;20064;-58
2023/03/09 05:56:48;;;;;;;10.77;4.68;;;10.60;99.90;;;;;;4178487;28;20052;-59
2023/03/09 05:59:08;;;;;;;5.68;3.65;;;10.60;99.90;;;;;;4179568;28;20363;-59
2023/03/09 06:01:29;;;;;;;9.30;4.35;;;10.60;99.90;;;;;;4174899;28;20109;-58
2023/03/09 06:03:49;;;;;;;5.00;3.65;;;10.60;99.90;;;;;;4176840;28;20128;-59
2023/03/09 06:06:09;;;;;;;6.30;4.97;;;10.60;99.90;;;;;;4183344;28;20045;-58
2023/03/09 06:08:29;;;;;;;8.50;4.45;;;10.60;99.90;;;;;;4177998;28;20041;-59
2023/03/09 06:10:49;;;;;;;7.57;6.28;;;10.70;99.90;;;;;;4175690;28;20045;-57
2023/03/09 06:13:09;;;;;;;6.65;4.50;;;10.60;99.90;;;;;;4172152;28;20128;-59
2023/03/09 06:15:29;;;;;;;7.68;4.22;;;10.70;99.90;;;;;;4176584;28;20227;-59
2023/03/09 06:17:48;;;;;;;5.93;3.88;;;10.60;99.90;;;;;;4172044;28;20079;-59
2023/03/09 06:20:09;;;;;;;6.72;4.45;;;10.60;99.90;;;;;;4177730;28;20040;-58
2023/03/09 06:22:29;;;;;;;9.98;6.13;;;10.60;99.90;;;;;;4178570;28;20047;-60
2023/03/09 06:24:48;;;;;;;9.23;5.13;;;10.60;99.90;;;;;;4180057;28;20369;-60
2023/03/09 06:27:08;;;;;;;10.07;4.72;;;10.60;99.90;;;;;;4173042;28;20120;-59
2023/03/09 06:29:28;;;;;;;7.72;4.82;;;10.60;99.90;;;;;;4170645;28;20041;-60
2023/03/09 06:31:48;;;;;;;7.07;4.55;;;10.60;99.90;;;;;;4174905;28;20072;-60
2023/03/09 06:34:07;;;;;;;6.55;4.57;;;10.70;99.90;;;;;;4175864;28;20047;-60
2023/03/09 06:36:27;;;;;;;12.48;5.05;;;10.70;99.90;;;;;;4168865;28;20059;-60
2023/03/09 06:38:47;;;;;;;9.75;5.07;;;10.70;99.90;;;;;;4170162;28;20071;-59
2023/03/09 06:41:07;;;;;;;14.93;6.18;;;10.70;99.90;;;;;;4176072;28;20232;-60
2023/03/09 06:43:27;;;;;;;11.45;5.05;;;10.70;99.90;;;;;;4177893;28;20048;-60
2023/03/09 06:45:47;;;;;;;8.18;4.82;;;10.70;99.90;;;;;;4185352;28;20271;-60
2023/03/09 06:48:09;;;;;;;7.20;4.60;;;10.70;99.90;;;;;;4173377;28;20076;-59
2023/03/09 06:50:29;;;;;;;5.32;4.85;;;10.70;99.90;;;;;;4179356;28;20247;-60
2023/03/09 06:52:49;;;;;;;5.25;4.78;;;10.70;99.90;;;;;;4180464;28;20080;-58
2023/03/09 06:55:09;;;;;;;6.50;4.75;;;10.70;99.90;;;;;;4175388;28;20060;-59
2023/03/09 06:57:39;;;;;;;6.15;4.88;;;10.70;99.90;;;;;;4174553;28;20232;-60
2023/03/09 06:59:59;;;;;;;7.55;4.32;;;10.70;99.90;;;;;;4174695;28;20289;-60
2023/03/09 07:02:18;;;;;;;8.50;4.35;;;10.60;99.90;;;;;;4167830;28;20236;-60
2023/03/09 07:04:38;;;;;;;8.40;5.32;;;10.60;99.90;;;;;;4176416;28;20052;-60
2023/03/09 07:06:58;;;;;;;7.60;5.05;;;10.60;99.90;;;;;;4176241;28;20095;-60
2023/03/09 07:09:18;;;;;;;7.03;4.50;;;10.60;99.90;;;;;;4173332;28;20041;-60
2023/03/09 07:11:38;;;;;;;5.57;4.45;;;10.60;99.90;;;;;;4174091;28;20098;-60
2023/03/09 07:13:58;;;;;;;10.48;5.45;;;10.60;99.90;;;;;;4176353;28;20040;-60
2023/03/09 07:16:17;;;;;;;7.00;6.40;;;10.50;99.90;;;;;;4175366;28;20072;-60
2023/03/09 07:18:38;;;;;;;10.85;4.80;;;10.50;99.90;;;;;;4175316;28;20067;-60
2023/03/09 07:21:02;;;;;;;8.52;5.70;;;10.60;99.90;;;;;;4177630;28;20060;-60
2023/03/09 07:23:22;;;;;;;5.30;5.00;;;10.60;99.90;;;;;;4176917;28;20084;-60
2023/03/09 07:25:42;;;;;;;4.50;4.10;;;10.60;99.90;;;;;;4177836;28;20231;-60
2023/03/09 07:28:03;;;;;;;9.68;5.55;;;10.70;99.90;;;;;;4173452;28;20072;-59
2023/03/09 07:30:23;;;;;;;11.52;5.47;;;10.70;99.90;;;;;;4175694;28;20047;-60
2023/03/09 07:32:43;;;;;;;6.28;4.43;;;10.70;99.90;;;;;;4165583;28;20113;-60
2023/03/09 07:35:03;;;;;;;7.78;5.60;;;10.80;99.90;;;;;;4173743;28;20415;-60
2023/03/09 07:37:23;;;;;;;8.30;4.38;;;10.80;99.90;;;;;;4171649;28;20067;-60
2023/03/09 07:39:43;;;;;;;6.70;4.25;;;10.80;99.90;;;;;;4172056;28;20071;-60
2023/03/09 07:42:04;;;;;;;5.97;5.38;;;10.90;99.90;;;;;;4170431;28;20056;-60
2023/03/09 07:44:24;;;;;;;5.05;4.53;;;10.90;99.90;;;;;;4178671;28;20228;-60
2023/03/09 07:46:44;;;;;;;4.78;4.30;;;10.90;99.90;;;;;;4177090;28;20228;-60
2023/03/09 07:49:05;;;;;;;8.93;6.35;;;11.00;99.90;;;;;;4170588;28;20375;-60
2023/03/09 07:51:25;;;;;;;5.13;4.18;;;11.00;99.90;;;;;;4165738;28;20065;-60
2023/03/09 07:53:45;;;;;;;7.25;6.65;;;10.90;99.90;;;;;;4172540;28;20053;-60
2023/03/09 07:56:07;;;;;;;5.85;4.55;;;11.00;99.90;;;;;;4178096;28;20091;-59
2023/03/09 07:58:27;;;;;;;10.88;4.65;;;10.90;99.90;;;;;;4171238;28;20057;-60
2023/03/09 08:00:48;;;;;;;7.25;3.60;;;11.00;99.90;;;;;;4167131;28;20041;-60
2023/03/09 08:03:07;;;;;;;6.00;3.97;;;11.00;99.90;;;;;;4173854;28;20056;-60
2023/03/09 08:05:28;;;;;;;6.88;4.97;;;11.00;99.90;;;;;;4174273;28;20083;-59
2023/03/09 08:07:49;;;;;;;7.72;4.78;;;11.10;99.90;;;;;;4175206;28;20045;-60
2023/03/09 08:10:09;;;;;;;9.38;5.28;;;11.10;99.90;;;;;;4167917;28;20240;-60
2023/03/09 08:12:29;;;;;;;6.35;5.55;;;11.20;99.90;;;;;;4177089;28;20053;-60
2023/03/09 08:14:49;;;;;;;16.67;7.65;;;11.20;99.90;;;;;;4175752;28;20235;-59
2023/03/09 08:17:09;;;;;;;7.57;6.78;;;11.20;99.90;;;;;;4171110;28;20114;-59
2023/03/09 08:19:30;;;;;;;5.50;5.03;;;11.20;99.90;;;;;;4170425;28;20232;-60
2023/03/09 08:21:50;;;;;;;4.75;4.32;;;11.30;99.90;;;;;;4174717;28;20128;-60
2023/03/09 08:24:10;;;;;;;6.32;5.68;;;11.30;99.90;;;;;;4175116;28;20067;-60
2023/03/09 08:26:30;;;;;;;9.60;7.68;;;11.30;99.90;;;;;;4175109;28;20083;-59
2023/03/09 08:28:50;;;;;;;9.35;5.90;;;11.40;99.90;;;;;;4172813;28;20048;-60
2023/03/09 08:31:14;;;;;;;16.13;6.47;;;11.40;99.90;;;;;;4180071;28;20044;-60
2023/03/09 08:33:34;;;;;;;7.18;5.22;;;11.50;99.90;;;;;;4180169;28;20053;-58
2023/03/09 08:35:54;;;;;;;11.80;8.07;;;11.60;99.90;;;;;;4178960;28;20048;-60
2023/03/09 08:38:13;;;;;;;8.57;5.15;;;11.60;99.90;;;;;;4180785;28;20394;-60
2023/03/09 08:40:34;;;;;;;9.02;5.15;;;11.60;99.90;;;;;;4171679;28;20049;-60
2023/03/09 08:42:54;;;;;;;8.02;5.18;;;11.70;99.90;;;;;;4178808;28;20294;-59
2023/03/09 08:45:14;;;;;;;6.43;5.70;;;11.60;99.90;;;;;;4182437;28;20043;-60
2023/03/09 08:47:34;;;;;;;6.82;4.35;;;11.70;99.90;;;;;;4170065;28;20378;-60
2023/03/09 08:49:54;;;;;;;9.93;5.50;;;11.60;99.90;;;;;;4176261;28;20071;-60
2023/03/09 08:52:15;;;;;;;5.20;4.80;;;11.60;99.90;;;;;;4178786;28;20140;-60
2023/03/09 08:54:35;;;;;;;6.65;4.30;;;11.70;99.90;;;;;;4182132;28;20040;-59
2023/03/09 08:56:55;;;;;;;4.05;3.65;;;11.80;99.90;;;;;;4175802;28;20358;-60
2023/03/09 08:59:15;;;;;;;4.65;3.63;;;11.80;99.90;;;;;;4174247;28;20088;-60
2023/03/09 09:01:35;;;;;;;5.15;4.75;;;11.70;99.90;;;;;;4181113;28;20045;-60
2023/03/09 09:03:55;;;;;;;5.65;3.72;;;11.60;99.90;;;;;;4176437;28;20059;-60
2023/03/09 09:06:15;;;;;;;5.35;5.00;;;11.70;99.90;;;;;;4178263;28;20145;-59
2023/03/09 09:08:35;;;;;;;7.93;4.00;;;11.90;99.90;;;;;;4179071;28;20068;-60
2023/03/09 09:10:56;;;;;;;7.30;4.97;;;11.90;99.90;;;;;;4181091;28;20247;-59
2023/03/09 09:13:16;;;;;;;6.03;3.80;;;12.00;99.90;;;;;;4173743;28;20052;-60
2023/03/09 09:15:39;;;;;;;3.70;2.92;;;12.10;99.90;;;;;;4179007;28;20100;-60
2023/03/09 09:17:58;;;;;;;4.45;3.70;;;12.20;99.90;;;;;;4179713;28;20394;-60
2023/03/09 09:20:19;;;;;;;3.35;2.90;;;12.30;99.90;;;;;;4176249;28;20102;-60
2023/03/09 09:22:42;;;;;;;3.60;3.00;;;12.40;99.90;;;;;;4176401;28;20413;-60
2023/03/09 09:25:08;;;;;;;9.20;4.55;;;12.50;99.90;;;;;;4181130;28;20052;-60
2023/03/09 09:27:28;;;;;;;9.38;3.95;;;12.60;99.90;;;;;;4173021;28;20041;-60
2023/03/09 09:29:48;;;;;;;8.07;3.30;;;12.60;99.90;;;;;;4166993;28;20117;-59
2023/03/09 09:32:09;;;;;;;3.03;2.80;;;12.80;99.90;;;;;;4169053;28;20256;-60
2023/03/09 09:34:33;;;;;;;5.45;3.85;;;12.90;99.90;;;;;;4173841;28;20121;-60
2023/03/09 09:36:53;;;;;;;7.55;3.13;;;13.00;99.90;;;;;;4171587;28;20064;-60
2023/03/09 09:39:14;;;;;;;4.00;3.10;;;12.90;99.90;;;;;;4164333;28;20041;-60
2023/03/09 09:41:42;;;;;;;5.32;3.70;;;12.90;99.90;;;;;;4173565;28;20052;-60
2023/03/09 09:44:08;;;;;;;8.73;3.13;;;13.00;99.90;;;;;;4172288;28;20143;-59
2023/03/09 09:46:30;;;;;;;4.82;4.20;;;13.10;99.90;;;;;;4168470;28;20382;-60
2023/03/09 09:48:50;;;;;;;11.57;4.68;;;13.10;99.90;;;;;;4168558;28;20045;-60
2023/03/09 09:51:48;;;;;;;5.18;3.50;;;13.00;99.90;;;;;;4175379;28;20271;-60
2023/03/09 09:54:27;;;;;;;3.53;3.15;;;13.10;99.90;;;;;;4170726;28;20084;-60
2023/03/09 09:56:50;;;;;;;4.00;3.25;;;13.20;99.90;;;;;;4190122;28;20063;-60
2023/03/09 09:59:19;;;;;;;3.58;3.13;;;13.30;99.90;;;;;;4176677;28;20079;-60
2023/03/09 10:01:57;;;;;;;6.15;3.38;;;13.30;99.90;;;;;;4182607;28;20235;-60
2023/03/09 10:04:37;;;;;;;7.43;3.33;;;13.40;99.90;;;;;;4177088;28;20048;-60
2023/03/09 10:07:00;;;;;;;6.57;2.88;;;13.60;99.90;;;;;;4177578;28;20112;-60
2023/03/09 10:09:27;;;;;;;2.50;2.28;;;13.70;99.90;;;;;;4183658;28;20243;-60
2023/03/09 10:11:51;;;;;;;6.43;2.80;;;13.80;99.90;;;;;;4174201;28;20394;-59
2023/03/09 10:15:05;;;;;;;3.67;2.08;;;13.90;99.90;;;;;;4174468;28;20048;-60
2023/03/09 10:17:34;;;;;;;4.93;2.15;;;13.90;99.90;;;;;;4140933;28;20073;-59
2023/03/09 10:19:57;;;;;;;3.40;2.63;;;14.10;99.90;;;;;;4130443;28;20046;-60
2023/03/09 10:22:23;;;;;;;4.17;2.80;;;14.30;99.90;;;;;;4159201;28;20049;-60
2023/03/09 10:24:45;;;;;;;5.72;3.20;;;14.40;99.90;;;;;;4177442;28;20268;-60
2023/03/09 10:27:30;;;;;;;2.92;2.65;;;14.50;99.90;;;;;;4179055;28;20370;-60
2023/03/09 10:29:59;;;;;;;3.53;2.88;;;14.50;99.90;;;;;;4169298;28;20080;-60
2023/03/09 10:32:49;;;;;;;5.30;1.98;;;14.60;99.90;;;;;;4173408;28;20064;-60
2023/03/09 10:35:19;;;;;;;3.92;2.22;;;14.60;99.90;;;;;;4174095;28;20048;-60
2023/03/09 10:37:39;;;;;;;3.13;2.60;;;14.60;99.90;;;;;;4170351;28;20332;-60
2023/03/09 10:40:05;;;;;;;3.50;2.08;;;14.70;99.90;;;;;;4169596;28;20045;-60
2023/03/09 10:42:27;;;;;;;6.40;2.88;;;14.90;99.90;;;;;;4176534;28;20228;-60
2023/03/09 10:45:20;;;;;;;3.00;2.17;;;15.10;99.90;;;;;;4176896;28;20095;-60
2023/03/09 10:47:50;;;;;;;8.63;2.55;;;15.00;99.90;;;;;;4175632;28;20045;-60
2023/03/09 10:50:12;;;;;;;5.13;2.53;;;15.10;99.90;;;;;;4173304;28;20102;-60
2023/03/09 10:52:44;;;;;;;5.90;2.15;;;15.20;99.90;;;;;;4178512;28;20388;-60
2023/03/09 10:55:27;;;;;;;3.25;2.55;;;15.20;99.90;;;;;;4181469;28;20064;-60
2023/03/09 10:57:58;;;;;;;2.90;2.67;;;15.30;99.90;;;;;;4175939;28;20378;-60
2023/03/09 11:00:18;;;;;;;3.15;2.33;;;15.50;99.90;;;;;;4177314;28;20117;-60
2023/03/09 11:02:38;;;;;;;2.97;2.60;;;15.70;99.90;;;;;;4176306;28;20267;-60
2023/03/09 11:04:58;;;;;;;3.67;1.95;;;15.90;99.90;;;;;;4170483;28;20064;-60
2023/03/09 11:07:22;;;;;;;3.95;1.52;;;16.20;99.90;;;;;;4173093;28;20092;-61
2023/03/09 11:09:42;;;;;;;2.53;1.92;;;16.40;99.90;;;;;;4178783;28;20149;-60
2023/03/09 11:12:30;;;;;;;2.53;1.20;;;16.60;99.90;;;;;;4178464;28;20048;-60
2023/03/09 11:14:56;;;;;;;1.63;1.50;;;16.80;99.90;;;;;;4171163;28;20056;-60
2023/03/09 11:17:37;;;;;;;2.30;2.10;;;17.10;99.90;;;;;;4178425;28;20154;-60
2023/03/09 11:20:26;;;;;;;1.45;1.40;;;17.40;99.90;;;;;;4175199;28;20267;-60
2023/03/09 11:23:12;;;;;;;2.53;1.10;;;17.40;99.90;;;;;;4177710;28;20359;-60
2023/03/09 11:25:43;;;;;;;1.45;1.33;;;17.50;99.90;;;;;;4181707;28;20075;-60
2023/03/09 11:28:44;;;;;;;2.53;1.55;;;17.90;99.90;;;;;;4174687;28;20041;-61
2023/03/09 11:31:20;;;;;;;3.50;1.73;;;18.00;99.90;;;;;;4172674;28;20056;-60
2023/03/09 11:33:40;;;;;;;2.70;1.27;;;18.70;99.90;;;;;;4174633;28;20158;-60
2023/03/09 11:36:02;;;;;;;1.27;1.27;;;18.60;99.90;;;;;;4172481;28;20121;-60
2023/03/09 11:38:26;;;;;;;2.80;1.83;;;18.90;99.90;;;;;;4173806;28;20064;-60
2023/03/09 11:40:49;;;;;;;3.95;1.67;;;19.20;99.90;;;;;;4172880;28;20049;-60
2023/03/09 11:43:25;;;;;;;2.28;1.83;;;18.90;99.90;;;;;;4186467;28;20055;-60
2023/03/09 11:45:46;;;;;;;1.40;1.20;;;18.50;99.90;;;;;;4174284;28;20244;-60
2023/03/09 11:48:15;;;;;;;1.15;1.00;;;18.60;99.90;;;;;;4178345;28;20057;-60
2023/03/09 11:50:44;;;;;;;1.98;1.00;;;18.90;99.90;;;;;;4179107;28;20099;-60
2023/03/09 11:53:27;;;;;;;3.78;1.75;;;18.90;99.90;;;;;;4169793;28;20151;-60
2023/03/09 11:55:52;;;;;;;1.15;1.02;;;19.20;99.90;;;;;;4172406;28;20109;-60
2023/03/09 11:58:17;;;;;;;1.88;1.23;;;18.60;99.90;;;;;;4174904;28;20091;-60
2023/03/09 12:00:45;;;;;;;1.83;1.17;;;18.50;99.90;;;;;;4171235;28;20060;-60
2023/03/09 12:03:16;;;;;;;3.88;1.10;;;18.70;99.90;;;;;;4170195;28;20052;-60
2023/03/09 12:05:40;;;;;;;2.05;1.50;;;18.80;99.80;;;;;;4177626;28;20079;-59
2023/03/09 12:08:20;;;;;;;2.35;1.80;;;18.80;99.90;;;;;;4176042;28;20366;-60
2023/03/09 12:10:40;;;;;;;4.60;1.50;;;18.90;99.20;;;;;;4180181;28;20276;-60
2023/03/09 12:13:06;;;;;;;1.42;1.10;;;19.00;99.90;;;;;;4173454;28;20084;-60
2023/03/09 12:15:47;;;;;;;3.50;2.00;;;19.50;99.90;;;;;;4181177;28;20045;-60
2023/03/09 12:18:29;;;;;;;1.92;1.00;;;18.90;99.90;;;;;;4182788;28;20065;-60
2023/03/09 12:20:55;;;;;;;3.53;1.30;;;19.30;99.90;;;;;;4183421;28;20118;-60
2023/03/09 12:23:36;;;;;;;3.72;2.55;;;18.70;99.40;;;;;;4178406;28;20275;-60
2023/03/09 12:25:57;;;;;;;2.40;1.40;;;18.60;99.90;;;;;;4181430;28;20084;-59
2023/03/09 12:28:21;;;;;;;1.30;1.20;;;18.90;99.90;;;;;;4178043;28;20064;-59
2023/03/09 12:30:55;;;;;;;1.20;1.20;;;18.70;98.80;;;;;;4170739;28;20044;-60